• Join FlightAware (Why Join?)
  • Login
  • US Flag 
08:56PM EDT


 

Airport Tracker/Info


-or-


 

Live Flight TrackerFlight Track Log ✈ VH-SPN ✈ 23-Jul-2013 ✈ YPJT / JAD - YNTM

Flight Track Log - Related Links

Times and Time Zones

All times are in EDT time to prevent confusion due to time zone crossing. See the VH-SPN flight status page for this flight to view local times or setup timezone preferences in your user account.

Time Position Orientation Groundspeed Altitude Reporting Facility
EDT Latitude Longitude Course Direction KTS MPH feet Rate Location/Type
10:31PM -32.1565 116.0029 120° Southeast 119 137 1,800  Level Aus ATC (RADAR)
10:32PM -32.1724 116.0355 120° Southeast 117 135 2,500 660 Climbing Aus ATC (RADAR)
10:33PM -32.1844 116.0601 120° Southeast 113 130 2,900 420 Climbing Aus ATC (RADAR)
10:33PM -32.1832 116.0796 86° East 99 114 3,100 420 Climbing Aus ATC (RADAR)
10:34PM -32.1795 116.1041 80° East 99 114 3,500 300 Climbing Aus ATC (RADAR)
10:35PM -32.1661 116.1440 68° East 103 119 3,800 120 Climbing Aus ATC (RADAR)
10:36PM -32.1568 116.1553 46° Northeast 96 110 3,800 -180 Level Aus ATC (RADAR)
10:37PM -32.1345 116.1739 35° Northeast 117 135 3,600 -180 Descending Aus ATC (RADAR)
10:38PM -32.1145 116.1867 29° Northeast 113 130 3,600 -120 Level Aus ATC (RADAR)
10:38PM -32.0998 116.1998 37° Northeast 113 130 3,500 -120 Descending Aus ATC (RADAR)
10:39PM -32.0783 116.2165 33° Northeast 111 128 3,500  Level Aus ATC (RADAR)
10:40PM -32.0480 116.2246 13° North 104 120 3,500  Level Aus ATC (RADAR)
10:41PM -32.0246 116.2338 18° North 105 121 3,600  Climbing Aus ATC (RADAR)
10:42PM -31.9992 116.2558 36° Northeast 120 138 3,600  Level Aus ATC (RADAR)
10:43PM -31.9811 116.2827 52° Northeast 125 144 3,600  Level Aus ATC (RADAR)
10:43PM -31.9693 116.3022 54° Northeast 124 143 3,600  Level Aus ATC (RADAR)
10:44PM -31.9539 116.3271 54° Northeast 122 140 3,600  Level Aus ATC (RADAR)
10:45PM -31.9314 116.3565 48° Northeast 119 137 3,600  Level Aus ATC (RADAR)
10:47PM -31.8921 116.3576 North 93 107 3,600 -60 Level Aus ATC (RADAR)
10:47PM -31.8682 116.3579 North 93 107 3,500 -120 Descending Aus ATC (RADAR)
10:48PM -31.8532 116.3794 51° Northeast 119 137 3,500  Level Aus ATC (RADAR)
10:49PM -31.8427 116.3995 58° Northeast 122 140 3,500  Level Aus ATC (RADAR)
10:49PM -31.8289 116.4206 52° Northeast 121 139 3,500  Level Aus ATC (RADAR)
10:53PM -31.7782 116.4867 48° Northeast -1,080 Descending Aus ATC (Calculated)
10:55PM -31.7516 116.5212 48° Northeast  Level FlightAware Approximate
10:56PM -31.7366 116.5407 48° Northeast  Level FlightAware Approximate
10:56PM -31.7020 116.5857 48° Northeast  Level Aus ATC (Calculated)
10:58PM -31.6735 116.6227 48° Northeast  Level FlightAware Approximate
10:59PM -31.6584 116.6422 48° Northeast  Level FlightAware Approximate
11:00PM -31.6434 116.6617 48° Northeast  Level FlightAware Approximate
11:01PM -31.6284 116.6811 48° Northeast  Level FlightAware Approximate
11:02PM -31.6246 116.6833 48° Northeast  Level Estimated
11:03PM -31.6246 116.6833 135° Southeast  Level Estimated
11:04PM -31.6246 116.6833 135° Southeast  Level Estimated